sensor_id;sensor_type;location;lat;lon;timestamp;temperature;humidity
34877;DHT22;21086;44.780;17.194;2023-04-06T00:01:43;3.80;99.90
34877;DHT22;21086;44.780;17.194;2023-04-06T00:04:10;3.80;99.90
34877;DHT22;21086;44.780;17.194;2023-04-06T00:06:37;3.80;99.90
34877;DHT22;21086;44.780;17.194;2023-04-06T00:09:04;3.90;99.90
34877;DHT22;21086;44.780;17.194;2023-04-06T00:11:31;4.00;99.90
34877;DHT22;21086;44.780;17.194;2023-04-06T00:13:58;4.00;99.90
34877;DHT22;21086;44.780;17.194;2023-04-06T00:16:25;4.00;99.90
34877;DHT22;21086;44.780;17.194;2023-04-06T00:18:55;4.10;99.90
34877;DHT22;21086;44.780;17.194;2023-04-06T00:21:22;4.10;99.90
34877;DHT22;21086;44.780;17.194;2023-04-06T00:23:49;4.20;99.90
34877;DHT22;21086;44.780;17.194;2023-04-06T00:26:16;4.20;99.90
34877;DHT22;21086;44.780;17.194;2023-04-06T00:28:43;4.20;99.90
34877;DHT22;21086;44.780;17.194;2023-04-06T00:31:10;4.20;99.90
34877;DHT22;21086;44.780;17.194;2023-04-06T00:33:37;4.30;99.90
34877;DHT22;21086;44.780;17.194;2023-04-06T00:36:04;4.40;99.90
34877;DHT22;21086;44.780;17.194;2023-04-06T00:38:32;4.40;99.90
34877;DHT22;21086;44.780;17.194;2023-04-06T00:40:59;4.40;99.90
34877;DHT22;21086;44.780;17.194;2023-04-06T00:43:26;4.30;99.90
34877;DHT22;21086;44.780;17.194;2023-04-06T00:45:53;4.30;99.90
34877;DHT22;21086;44.780;17.194;2023-04-06T00:48:20;4.30;99.90
34877;DHT22;21086;44.780;17.194;2023-04-06T00:50:46;4.30;99.90
34877;DHT22;21086;44.780;17.194;2023-04-06T00:53:14;4.40;99.90
34877;DHT22;21086;44.780;17.194;2023-04-06T00:55:41;4.40;99.90
34877;DHT22;21086;44.780;17.194;2023-04-06T00:58:08;4.40;99.90
34877;DHT22;21086;44.780;17.194;2023-04-06T01:00:35;4.40;99.90
34877;DHT22;21086;44.780;17.194;2023-04-06T01:03:02;4.20;99.90
34877;DHT22;21086;44.780;17.194;2023-04-06T01:05:30;4.20;99.90
34877;DHT22;21086;44.780;17.194;2023-04-06T01:07:57;4.30;99.90
34877;DHT22;21086;44.780;17.194;2023-04-06T01:10:28;4.30;99.90
34877;DHT22;21086;44.780;17.194;2023-04-06T01:12:55;4.30;99.90
34877;DHT22;21086;44.780;17.194;2023-04-06T01:15:22;4.30;99.90
34877;DHT22;21086;44.780;17.194;2023-04-06T01:17:50;4.30;99.90
34877;DHT22;21086;44.780;17.194;2023-04-06T01:20:17;4.30;99.90
34877;DHT22;21086;44.780;17.194;2023-04-06T01:22:44;4.30;99.90
34877;DHT22;21086;44.780;17.194;2023-04-06T01:25:11;4.40;99.90
34877;DHT22;21086;44.780;17.194;2023-04-06T01:27:38;4.40;99.90
34877;DHT22;21086;44.780;17.194;2023-04-06T01:30:06;4.30;99.90
34877;DHT22;21086;44.780;17.194;2023-04-06T01:32:33;4.20;99.90
34877;DHT22;21086;44.780;17.194;2023-04-06T01:35:01;4.20;99.90
34877;DHT22;21086;44.780;17.194;2023-04-06T01:37:28;4.30;99.90
34877;DHT22;21086;44.780;17.194;2023-04-06T01:39:59;4.20;99.90
34877;DHT22;21086;44.780;17.194;2023-04-06T01:42:26;4.20;99.90
34877;DHT22;21086;44.780;17.194;2023-04-06T01:44:53;4.20;99.90
34877;DHT22;21086;44.780;17.194;2023-04-06T01:47:20;4.30;99.90
34877;DHT22;21086;44.780;17.194;2023-04-06T01:49:47;4.30;99.90
34877;DHT22;21086;44.780;17.194;2023-04-06T01:52:14;4.30;99.90
34877;DHT22;21086;44.780;17.194;2023-04-06T01:54:42;4.20;99.90
34877;DHT22;21086;44.780;17.194;2023-04-06T01:57:10;4.30;99.90
34877;DHT22;21086;44.780;17.194;2023-04-06T01:59:37;4.20;99.90
34877;DHT22;21086;44.780;17.194;2023-04-06T02:02:04;4.20;99.90
34877;DHT22;21086;44.780;17.194;2023-04-06T02:04:32;4.30;99.90
34877;DHT22;21086;44.780;17.194;2023-04-06T02:06:59;4.30;99.90
34877;DHT22;21086;44.780;17.194;2023-04-06T02:09:26;4.30;99.90
34877;DHT22;21086;44.780;17.194;2023-04-06T02:11:53;4.30;99.90
34877;DHT22;21086;44.780;17.194;2023-04-06T02:14:20;4.30;99.90
34877;DHT22;21086;44.780;17.194;2023-04-06T02:16:47;4.30;99.90
34877;DHT22;21086;44.780;17.194;2023-04-06T02:19:14;4.30;99.90
34877;DHT22;21086;44.780;17.194;2023-04-06T02:21:41;4.30;99.90
34877;DHT22;21086;44.780;17.194;2023-04-06T02:24:08;4.30;99.90
34877;DHT22;21086;44.780;17.194;2023-04-06T02:26:35;4.30;99.90
34877;DHT22;21086;44.780;17.194;2023-04-06T02:29:02;4.30;99.90
34877;DHT22;21086;44.780;17.194;2023-04-06T02:31:28;4.30;99.90
34877;DHT22;21086;44.780;17.194;2023-04-06T02:33:55;4.30;99.90
34877;DHT22;21086;44.780;17.194;2023-04-06T02:36:22;4.30;99.90
34877;DHT22;21086;44.780;17.194;2023-04-06T02:38:49;4.30;99.90
34877;DHT22;21086;44.780;17.194;2023-04-06T02:41:16;4.30;99.90
34877;DHT22;21086;44.780;17.194;2023-04-06T02:43:43;4.30;99.90
34877;DHT22;21086;44.780;17.194;2023-04-06T02:46:10;4.30;99.90
34877;DHT22;21086;44.780;17.194;2023-04-06T02:48:37;4.40;99.90
34877;DHT22;21086;44.780;17.194;2023-04-06T02:51:04;4.30;99.90
34877;DHT22;21086;44.780;17.194;2023-04-06T02:53:31;4.30;99.90
34877;DHT22;21086;44.780;17.194;2023-04-06T02:55:59;4.30;99.90
34877;DHT22;21086;44.780;17.194;2023-04-06T02:58:26;4.30;99.90
34877;DHT22;21086;44.780;17.194;2023-04-06T03:00:53;4.30;99.90
34877;DHT22;21086;44.780;17.194;2023-04-06T03:03:20;4.30;99.90
34877;DHT22;21086;44.780;17.194;2023-04-06T03:05:48;4.30;99.90
34877;DHT22;21086;44.780;17.194;2023-04-06T03:08:14;4.10;99.90
34877;DHT22;21086;44.780;17.194;2023-04-06T03:10:41;4.20;99.90
34877;DHT22;21086;44.780;17.194;2023-04-06T03:13:09;4.10;99.90
34877;DHT22;21086;44.780;17.194;2023-04-06T03:15:36;4.20;99.90
34877;DHT22;21086;44.780;17.194;2023-04-06T03:18:03;4.10;99.90
34877;DHT22;21086;44.780;17.194;2023-04-06T03:20:30;4.10;99.90
34877;DHT22;21086;44.780;17.194;2023-04-06T03:22:57;4.20;99.90
34877;DHT22;21086;44.780;17.194;2023-04-06T03:25:24;4.20;99.90
34877;DHT22;21086;44.780;17.194;2023-04-06T03:27:51;4.20;99.90
34877;DHT22;21086;44.780;17.194;2023-04-06T03:30:19;4.20;99.90
34877;DHT22;21086;44.780;17.194;2023-04-06T03:32:45;4.30;99.90
34877;DHT22;21086;44.780;17.194;2023-04-06T03:35:12;4.30;99.90
34877;DHT22;21086;44.780;17.194;2023-04-06T03:37:40;4.30;99.90
34877;DHT22;21086;44.780;17.194;2023-04-06T03:40:07;4.30;99.90
34877;DHT22;21086;44.780;17.194;2023-04-06T03:42:34;4.30;99.90
34877;DHT22;21086;44.780;17.194;2023-04-06T03:45:01;4.40;99.90
34877;DHT22;21086;44.780;17.194;2023-04-06T03:47:28;4.30;99.90
34877;DHT22;21086;44.780;17.194;2023-04-06T03:49:55;4.30;99.90
34877;DHT22;21086;44.780;17.194;2023-04-06T03:52:22;4.30;99.90
34877;DHT22;21086;44.780;17.194;2023-04-06T03:54:49;4.30;99.90
34877;DHT22;21086;44.780;17.194;2023-04-06T03:57:16;4.20;99.90
34877;DHT22;21086;44.780;17.194;2023-04-06T03:59:43;4.30;99.90
34877;DHT22;21086;44.780;17.194;2023-04-06T04:02:10;4.30;99.90
34877;DHT22;21086;44.780;17.194;2023-04-06T04:04:37;4.30;99.90
34877;DHT22;21086;44.780;17.194;2023-04-06T04:07:04;4.20;99.90
34877;DHT22;21086;44.780;17.194;2023-04-06T04:09:31;4.20;99.90
34877;DHT22;21086;44.780;17.194;2023-04-06T04:11:58;4.20;99.90
34877;DHT22;21086;44.780;17.194;2023-04-06T04:14:25;4.00;99.90
34877;DHT22;21086;44.780;17.194;2023-04-06T04:16:52;4.00;99.90
34877;DHT22;21086;44.780;17.194;2023-04-06T04:19:19;4.00;99.90
34877;DHT22;21086;44.780;17.194;2023-04-06T04:21:46;3.90;99.90
34877;DHT22;21086;44.780;17.194;2023-04-06T04:24:13;3.80;99.90
34877;DHT22;21086;44.780;17.194;2023-04-06T04:26:41;3.80;99.90
34877;DHT22;21086;44.780;17.194;2023-04-06T04:29:08;3.80;99.90
34877;DHT22;21086;44.780;17.194;2023-04-06T04:31:35;3.70;99.90
34877;DHT22;21086;44.780;17.194;2023-04-06T04:34:02;3.70;99.90
34877;DHT22;21086;44.780;17.194;2023-04-06T04:36:30;3.70;99.90
34877;DHT22;21086;44.780;17.194;2023-04-06T04:38:57;3.70;99.90
34877;DHT22;21086;44.780;17.194;2023-04-06T04:41:24;3.80;99.90
34877;DHT22;21086;44.780;17.194;2023-04-06T04:43:51;3.80;99.90
34877;DHT22;21086;44.780;17.194;2023-04-06T04:46:18;3.90;99.90
34877;DHT22;21086;44.780;17.194;2023-04-06T04:48:45;3.90;99.90
34877;DHT22;21086;44.780;17.194;2023-04-06T04:51:12;3.90;99.90
34877;DHT22;21086;44.780;17.194;2023-04-06T04:53:39;4.00;99.90
34877;DHT22;21086;44.780;17.194;2023-04-06T04:56:06;4.00;99.90
34877;DHT22;21086;44.780;17.194;2023-04-06T04:58:33;4.00;99.90
34877;DHT22;21086;44.780;17.194;2023-04-06T05:01:00;4.00;99.90
34877;DHT22;21086;44.780;17.194;2023-04-06T05:03:33;4.30;99.90
34877;DHT22;21086;44.780;17.194;2023-04-06T05:06:01;4.10;99.90
34877;DHT22;21086;44.780;17.194;2023-04-06T05:08:28;4.10;99.90
34877;DHT22;21086;44.780;17.194;2023-04-06T05:10:55;4.20;99.90
34877;DHT22;21086;44.780;17.194;2023-04-06T05:13:22;4.30;99.90
34877;DHT22;21086;44.780;17.194;2023-04-06T05:15:49;4.30;99.90
34877;DHT22;21086;44.780;17.194;2023-04-06T05:18:16;4.30;99.90
34877;DHT22;21086;44.780;17.194;2023-04-06T05:20:43;4.40;99.90
34877;DHT22;21086;44.780;17.194;2023-04-06T05:23:10;4.30;99.90
34877;DHT22;21086;44.780;17.194;2023-04-06T05:25:37;4.20;99.90
34877;DHT22;21086;44.780;17.194;2023-04-06T05:28:04;4.20;99.90
34877;DHT22;21086;44.780;17.194;2023-04-06T05:30:31;4.30;99.90
34877;DHT22;21086;44.780;17.194;2023-04-06T05:32:58;4.40;99.90
34877;DHT22;21086;44.780;17.194;2023-04-06T05:35:26;4.50;99.90
34877;DHT22;21086;44.780;17.194;2023-04-06T05:37:53;4.60;99.90
34877;DHT22;21086;44.780;17.194;2023-04-06T05:40:20;4.80;99.90
34877;DHT22;21086;44.780;17.194;2023-04-06T05:42:47;4.80;99.90
34877;DHT22;21086;44.780;17.194;2023-04-06T05:45:16;4.90;99.90
34877;DHT22;21086;44.780;17.194;2023-04-06T05:47:45;4.90;99.90
34877;DHT22;21086;44.780;17.194;2023-04-06T05:50:14;5.00;99.90
34877;DHT22;21086;44.780;17.194;2023-04-06T05:52:41;5.10;99.90
34877;DHT22;21086;44.780;17.194;2023-04-06T05:55:10;5.10;99.90
34877;DHT22;21086;44.780;17.194;2023-04-06T05:57:38;5.10;99.90
34877;DHT22;21086;44.780;17.194;2023-04-06T06:00:06;5.30;99.90
34877;DHT22;21086;44.780;17.194;2023-04-06T06:02:35;5.30;99.90
34877;DHT22;21086;44.780;17.194;2023-04-06T06:05:03;5.30;99.90
34877;DHT22;21086;44.780;17.194;2023-04-06T06:07:30;5.40;99.90
34877;DHT22;21086;44.780;17.194;2023-04-06T06:09:58;5.50;99.90
34877;DHT22;21086;44.780;17.194;2023-04-06T06:12:25;5.60;99.90
34877;DHT22;21086;44.780;17.194;2023-04-06T06:14:52;6.00;99.90
34877;DHT22;21086;44.780;17.194;2023-04-06T06:17:19;6.10;99.90
34877;DHT22;21086;44.780;17.194;2023-04-06T06:19:46;6.20;99.90
34877;DHT22;21086;44.780;17.194;2023-04-06T06:22:12;6.30;99.90
34877;DHT22;21086;44.780;17.194;2023-04-06T06:24:40;6.30;99.90
34877;DHT22;21086;44.780;17.194;2023-04-06T06:27:07;6.30;99.90
34877;DHT22;21086;44.780;17.194;2023-04-06T06:29:34;6.40;99.90
34877;DHT22;21086;44.780;17.194;2023-04-06T06:32:01;6.40;99.90
34877;DHT22;21086;44.780;17.194;2023-04-06T06:34:29;6.40;99.90
34877;DHT22;21086;44.780;17.194;2023-04-06T06:36:56;6.60;99.90
34877;DHT22;21086;44.780;17.194;2023-04-06T06:39:23;6.60;99.90
34877;DHT22;21086;44.780;17.194;2023-04-06T06:41:50;6.60;99.90
34877;DHT22;21086;44.780;17.194;2023-04-06T06:44:17;6.40;99.90
34877;DHT22;21086;44.780;17.194;2023-04-06T06:46:44;6.30;99.90
34877;DHT22;21086;44.780;17.194;2023-04-06T06:49:11;6.20;99.90
34877;DHT22;21086;44.780;17.194;2023-04-06T06:51:38;6.10;99.90
34877;DHT22;21086;44.780;17.194;2023-04-06T06:54:06;5.90;99.90
34877;DHT22;21086;44.780;17.194;2023-04-06T06:56:34;5.80;99.90
34877;DHT22;21086;44.780;17.194;2023-04-06T06:59:05;5.70;99.90
34877;DHT22;21086;44.780;17.194;2023-04-06T07:01:33;5.70;99.90
34877;DHT22;21086;44.780;17.194;2023-04-06T07:04:01;5.60;99.90
34877;DHT22;21086;44.780;17.194;2023-04-06T07:06:29;5.60;99.90
34877;DHT22;21086;44.780;17.194;2023-04-06T07:08:56;5.80;99.90
34877;DHT22;21086;44.780;17.194;2023-04-06T07:11:23;6.00;99.90
34877;DHT22;21086;44.780;17.194;2023-04-06T07:13:50;6.10;99.90
34877;DHT22;21086;44.780;17.194;2023-04-06T07:16:17;6.20;99.90
34877;DHT22;21086;44.780;17.194;2023-04-06T07:18:44;6.20;99.90
34877;DHT22;21086;44.780;17.194;2023-04-06T07:21:12;6.20;99.90
34877;DHT22;21086;44.780;17.194;2023-04-06T07:23:39;6.20;99.90
34877;DHT22;21086;44.780;17.194;2023-04-06T07:26:06;6.20;99.90
34877;DHT22;21086;44.780;17.194;2023-04-06T07:28:33;6.20;99.90
34877;DHT22;21086;44.780;17.194;2023-04-06T07:31:00;6.10;99.90
34877;DHT22;21086;44.780;17.194;2023-04-06T07:33:27;6.20;99.90
34877;DHT22;21086;44.780;17.194;2023-04-06T07:35:56;6.20;99.90
34877;DHT22;21086;44.780;17.194;2023-04-06T07:38:25;6.20;99.90
34877;DHT22;21086;44.780;17.194;2023-04-06T07:40:52;6.30;99.90
34877;DHT22;21086;44.780;17.194;2023-04-06T07:43:19;6.50;99.90
34877;DHT22;21086;44.780;17.194;2023-04-06T07:45:46;6.40;99.90
34877;DHT22;21086;44.780;17.194;2023-04-06T07:48:13;6.60;99.90
34877;DHT22;21086;44.780;17.194;2023-04-06T07:50:40;6.70;99.90
34877;DHT22;21086;44.780;17.194;2023-04-06T07:53:08;6.80;99.90
34877;DHT22;21086;44.780;17.194;2023-04-06T07:55:35;6.90;99.90
34877;DHT22;21086;44.780;17.194;2023-04-06T07:58:02;6.90;99.90
34877;DHT22;21086;44.780;17.194;2023-04-06T08:00:30;7.10;99.90
34877;DHT22;21086;44.780;17.194;2023-04-06T08:02:57;7.10;99.90
34877;DHT22;21086;44.780;17.194;2023-04-06T08:05:24;7.20;99.90
34877;DHT22;21086;44.780;17.194;2023-04-06T08:07:51;7.20;99.90
34877;DHT22;21086;44.780;17.194;2023-04-06T08:10:19;7.20;99.90
34877;DHT22;21086;44.780;17.194;2023-04-06T08:12:46;7.20;99.90
34877;DHT22;21086;44.780;17.194;2023-04-06T08:15:13;7.30;99.90
34877;DHT22;21086;44.780;17.194;2023-04-06T08:17:40;7.40;99.90
34877;DHT22;21086;44.780;17.194;2023-04-06T08:20:07;7.60;99.90
34877;DHT22;21086;44.780;17.194;2023-04-06T08:22:34;7.50;99.90
34877;DHT22;21086;44.780;17.194;2023-04-06T08:25:01;7.60;99.90
34877;DHT22;21086;44.780;17.194;2023-04-06T08:27:28;7.60;99.90
34877;DHT22;21086;44.780;17.194;2023-04-06T08:29:54;7.50;99.90
34877;DHT22;21086;44.780;17.194;2023-04-06T08:32:22;7.70;99.90
34877;DHT22;21086;44.780;17.194;2023-04-06T08:34:49;8.00;99.90
34877;DHT22;21086;44.780;17.194;2023-04-06T08:37:16;8.30;99.90
34877;DHT22;21086;44.780;17.194;2023-04-06T08:39:43;8.60;99.90
34877;DHT22;21086;44.780;17.194;2023-04-06T08:42:16;8.70;99.90
34877;DHT22;21086;44.780;17.194;2023-04-06T08:44:47;8.80;99.90
34877;DHT22;21086;44.780;17.194;2023-04-06T08:47:15;9.00;99.90
34877;DHT22;21086;44.780;17.194;2023-04-06T08:49:43;9.30;99.90
34877;DHT22;21086;44.780;17.194;2023-04-06T08:52:11;9.40;99.90
34877;DHT22;21086;44.780;17.194;2023-04-06T08:54:38;9.60;99.90
34877;DHT22;21086;44.780;17.194;2023-04-06T08:57:05;9.70;99.90
34877;DHT22;21086;44.780;17.194;2023-04-06T08:59:33;9.50;99.90
34877;DHT22;21086;44.780;17.194;2023-04-06T09:02:03;9.60;99.90
34877;DHT22;21086;44.780;17.194;2023-04-06T09:04:33;9.70;99.90
34877;DHT22;21086;44.780;17.194;2023-04-06T09:07:00;9.80;99.90
34877;DHT22;21086;44.780;17.194;2023-04-06T09:09:28;10.00;99.90
34877;DHT22;21086;44.780;17.194;2023-04-06T09:11:55;10.30;99.90
34877;DHT22;21086;44.780;17.194;2023-04-06T09:14:43;10.50;99.90
34877;DHT22;21086;44.780;17.194;2023-04-06T09:17:23;10.60;99.90
34877;DHT22;21086;44.780;17.194;2023-04-06T09:19:51;10.70;99.90
34877;DHT22;21086;44.780;17.194;2023-04-06T09:22:18;10.70;99.90
34877;DHT22;21086;44.780;17.194;2023-04-06T09:24:48;10.80;99.90
34877;DHT22;21086;44.780;17.194;2023-04-06T09:27:15;10.80;99.90
34877;DHT22;21086;44.780;17.194;2023-04-06T09:29:43;10.50;99.90
34877;DHT22;21086;44.780;17.194;2023-04-06T09:32:11;10.40;99.90
34877;DHT22;21086;44.780;17.194;2023-04-06T09:34:38;10.50;99.90
34877;DHT22;21086;44.780;17.194;2023-04-06T09:37:19;10.70;99.90
34877;DHT22;21086;44.780;17.194;2023-04-06T09:39:46;10.90;99.90
34877;DHT22;21086;44.780;17.194;2023-04-06T09:42:25;11.10;99.90
34877;DHT22;21086;44.780;17.194;2023-04-06T09:44:52;11.10;99.90
34877;DHT22;21086;44.780;17.194;2023-04-06T09:47:20;11.30;99.90
34877;DHT22;21086;44.780;17.194;2023-04-06T09:49:57;11.30;99.90
34877;DHT22;21086;44.780;17.194;2023-04-06T09:52:27;11.30;99.90
34877;DHT22;21086;44.780;17.194;2023-04-06T09:55:05;11.30;99.90
34877;DHT22;21086;44.780;17.194;2023-04-06T10:00:42;11.40;99.90
34877;DHT22;21086;44.780;17.194;2023-04-06T10:05:52;11.70;99.90
34877;DHT22;21086;44.780;17.194;2023-04-06T10:08:22;11.80;99.90
34877;DHT22;21086;44.780;17.194;2023-04-06T10:10:51;12.10;99.90
34877;DHT22;21086;44.780;17.194;2023-04-06T10:13:19;12.10;99.90
34877;DHT22;21086;44.780;17.194;2023-04-06T10:15:46;12.30;99.90
34877;DHT22;21086;44.780;17.194;2023-04-06T10:18:14;12.40;99.90
34877;DHT22;21086;44.780;17.194;2023-04-06T10:20:57;12.70;99.90
34877;DHT22;21086;44.780;17.194;2023-04-06T10:26:02;13.00;99.90
34877;DHT22;21086;44.780;17.194;2023-04-06T10:28:34;13.10;99.90
34877;DHT22;21086;44.780;17.194;2023-04-06T10:31:05;13.00;99.90
34877;DHT22;21086;44.780;17.194;2023-04-06T10:33:33;13.00;99.90
34877;DHT22;21086;44.780;17.194;2023-04-06T10:36:11;13.20;99.90
34877;DHT22;21086;44.780;17.194;2023-04-06T10:38:39;13.30;99.90
34877;DHT22;21086;44.780;17.194;2023-04-06T10:41:09;13.40;99.90
34877;DHT22;21086;44.780;17.194;2023-04-06T10:43:39;13.60;99.90
34877;DHT22;21086;44.780;17.194;2023-04-06T10:46:08;13.80;99.90
34877;DHT22;21086;44.780;17.194;2023-04-06T10:51:14;14.40;99.90
34877;DHT22;21086;44.780;17.194;2023-04-06T10:53:42;14.70;99.90
34877;DHT22;21086;44.780;17.194;2023-04-06T10:56:12;14.90;99.90
34877;DHT22;21086;44.780;17.194;2023-04-06T10:58:47;15.50;99.90
34877;DHT22;21086;44.780;17.194;2023-04-06T11:01:15;16.00;99.90
34877;DHT22;21086;44.780;17.194;2023-04-06T11:03:47;16.10;99.90
34877;DHT22;21086;44.780;17.194;2023-04-06T11:06:22;16.80;99.90
34877;DHT22;21086;44.780;17.194;2023-04-06T11:08:51;17.40;99.90
34877;DHT22;21086;44.780;17.194;2023-04-06T11:11:19;17.90;99.90
34877;DHT22;21086;44.780;17.194;2023-04-06T11:14:00;18.40;99.90
34877;DHT22;21086;44.780;17.194;2023-04-06T11:16:31;20.20;99.90
34877;DHT22;21086;44.780;17.194;2023-04-06T11:19:03;21.50;99.90
34877;DHT22;21086;44.780;17.194;2023-04-06T11:21:46;22.00;99.90
34877;DHT22;21086;44.780;17.194;2023-04-06T11:24:23;22.80;99.90
34877;DHT22;21086;44.780;17.194;2023-04-06T11:26:55;24.30;99.90
34877;DHT22;21086;44.780;17.194;2023-04-06T11:29:27;25.60;99.90
34877;DHT22;21086;44.780;17.194;2023-04-06T11:32:00;25.40;99.90
34877;DHT22;21086;44.780;17.194;2023-04-06T11:34:29;23.70;99.90
34877;DHT22;21086;44.780;17.194;2023-04-06T11:37:01;22.40;99.90
34877;DHT22;21086;44.780;17.194;2023-04-06T11:39:30;22.30;99.90
34877;DHT22;21086;44.780;17.194;2023-04-06T11:42:01;23.30;99.90
34877;DHT22;21086;44.780;17.194;2023-04-06T11:44:43;25.30;99.90
34877;DHT22;21086;44.780;17.194;2023-04-06T11:47:13;26.90;99.90
34877;DHT22;21086;44.780;17.194;2023-04-06T11:49:42;28.30;99.90
34877;DHT22;21086;44.780;17.194;2023-04-06T11:52:23;28.80;99.90
34877;DHT22;21086;44.780;17.194;2023-04-06T11:54:52;30.00;99.90
34877;DHT22;21086;44.780;17.194;2023-04-06T11:57:21;30.90;99.90
34877;DHT22;21086;44.780;17.194;2023-04-06T11:59:52;31.30;99.90
34877;DHT22;21086;44.780;17.194;2023-04-06T12:02:19;31.10;99.90
34877;DHT22;21086;44.780;17.194;2023-04-06T12:04:46;30.70;99.90
34877;DHT22;21086;44.780;17.194;2023-04-06T12:07:13;30.70;99.90
34877;DHT22;21086;44.780;17.194;2023-04-06T12:09:43;30.80;99.90
34877;DHT22;21086;44.780;17.194;2023-04-06T12:12:10;31.90;99.90
34877;DHT22;21086;44.780;17.194;2023-04-06T12:14:37;32.50;99.90
34877;DHT22;21086;44.780;17.194;2023-04-06T12:17:03;32.70;99.90
34877;DHT22;21086;44.780;17.194;2023-04-06T12:19:30;33.00;99.90
34877;DHT22;21086;44.780;17.194;2023-04-06T12:21:58;33.40;99.90
34877;DHT22;21086;44.780;17.194;2023-04-06T12:24:25;33.30;99.90
34877;DHT22;21086;44.780;17.194;2023-04-06T12:26:53;33.70;99.90
34877;DHT22;21086;44.780;17.194;2023-04-06T12:29:35;33.90;99.50
34877;DHT22;21086;44.780;17.194;2023-04-06T12:32:03;34.60;98.80
34877;DHT22;21086;44.780;17.194;2023-04-06T12:34:30;34.60;97.60
34877;DHT22;21086;44.780;17.194;2023-04-06T12:36:57;35.40;97.30
34877;DHT22;21086;44.780;17.194;2023-04-06T12:39:27;36.10;96.50
34877;DHT22;21086;44.780;17.194;2023-04-06T12:41:54;36.50;95.10
34877;DHT22;21086;44.780;17.194;2023-04-06T12:44:22;35.50;93.00
34877;DHT22;21086;44.780;17.194;2023-04-06T12:46:52;35.10;91.70
34877;DHT22;21086;44.780;17.194;2023-04-06T12:49:19;35.50;90.40
34877;DHT22;21086;44.780;17.194;2023-04-06T12:51:46;36.00;89.10
34877;DHT22;21086;44.780;17.194;2023-04-06T12:54:13;33.90;82.40
34877;DHT22;21086;44.780;17.194;2023-04-06T12:56:40;33.50;79.20
34877;DHT22;21086;44.780;17.194;2023-04-06T12:59:07;32.50;74.40
34877;DHT22;21086;44.780;17.194;2023-04-06T13:01:34;32.80;74.70
34877;DHT22;21086;44.780;17.194;2023-04-06T13:04:02;32.40;71.80
34877;DHT22;21086;44.780;17.194;2023-04-06T13:06:29;29.70;64.40
34877;DHT22;21086;44.780;17.194;2023-04-06T13:08:56;28.00;61.30
34877;DHT22;21086;44.780;17.194;2023-04-06T13:11:24;26.20;60.40
34877;DHT22;21086;44.780;17.194;2023-04-06T13:13:54;25.40;60.50
34877;DHT22;21086;44.780;17.194;2023-04-06T13:16:21;26.30;64.70
34877;DHT22;21086;44.780;17.194;2023-04-06T13:18:49;26.70;65.10
34877;DHT22;21086;44.780;17.194;2023-04-06T13:21:17;26.80;64.90
34877;DHT22;21086;44.780;17.194;2023-04-06T13:23:44;27.90;66.80
34877;DHT22;21086;44.780;17.194;2023-04-06T13:26:11;29.10;68.60
34877;DHT22;21086;44.780;17.194;2023-04-06T13:28:40;30.20;67.90
34877;DHT22;21086;44.780;17.194;2023-04-06T13:31:07;31.10;67.80
34877;DHT22;21086;44.780;17.194;2023-04-06T13:33:35;31.30;67.20
34877;DHT22;21086;44.780;17.194;2023-04-06T13:36:02;32.40;67.30
34877;DHT22;21086;44.780;17.194;2023-04-06T13:38:30;33.30;84.10
34877;DHT22;21086;44.780;17.194;2023-04-06T13:40:56;33.70;66.70
34877;DHT22;21086;44.780;17.194;2023-04-06T13:43:24;33.50;65.00
34877;DHT22;21086;44.780;17.194;2023-04-06T13:45:54;33.70;63.90
34877;DHT22;21086;44.780;17.194;2023-04-06T13:48:22;34.50;64.70
34877;DHT22;21086;44.780;17.194;2023-04-06T13:50:49;35.20;64.50
34877;DHT22;21086;44.780;17.194;2023-04-06T13:53:16;33.90;60.40
34877;DHT22;21086;44.780;17.194;2023-04-06T13:55:43;34.00;59.30
34877;DHT22;21086;44.780;17.194;2023-04-06T13:58:11;34.20;58.20
34877;DHT22;21086;44.780;17.194;2023-04-06T14:00:38;34.10;57.50
34877;DHT22;21086;44.780;17.194;2023-04-06T14:03:05;33.70;56.20
34877;DHT22;21086;44.780;17.194;2023-04-06T14:05:33;33.20;54.20
34877;DHT22;21086;44.780;17.194;2023-04-06T14:08:00;31.00;50.70
34877;DHT22;21086;44.780;17.194;2023-04-06T14:10:27;30.10;50.30
34877;DHT22;21086;44.780;17.194;2023-04-06T14:12:55;29.80;49.70
34877;DHT22;21086;44.780;17.194;2023-04-06T14:15:22;30.80;51.40
34877;DHT22;21086;44.780;17.194;2023-04-06T14:17:50;31.30;51.90
34877;DHT22;21086;44.780;17.194;2023-04-06T14:20:18;32.10;51.50
34877;DHT22;21086;44.780;17.194;2023-04-06T14:22:45;31.20;51.10
34877;DHT22;21086;44.780;17.194;2023-04-06T14:25:13;31.20;50.30
34877;DHT22;21086;44.780;17.194;2023-04-06T14:27:43;31.50;50.40
34877;DHT22;21086;44.780;17.194;2023-04-06T14:30:10;31.90;50.70
34877;DHT22;21086;44.780;17.194;2023-04-06T14:32:37;31.90;49.60
34877;DHT22;21086;44.780;17.194;2023-04-06T14:35:05;32.30;49.60
34877;DHT22;21086;44.780;17.194;2023-04-06T14:37:34;33.00;50.40
34877;DHT22;21086;44.780;17.194;2023-04-06T14:40:04;33.60;49.80
34877;DHT22;21086;44.780;17.194;2023-04-06T14:42:31;34.00;49.90
34877;DHT22;21086;44.780;17.194;2023-04-06T14:44:58;34.20;58.90
34877;DHT22;21086;44.780;17.194;2023-04-06T14:47:25;34.50;49.00
34877;DHT22;21086;44.780;17.194;2023-04-06T14:49:52;34.60;48.10
34877;DHT22;21086;44.780;17.194;2023-04-06T14:52:20;34.10;48.00
34877;DHT22;21086;44.780;17.194;2023-04-06T14:54:47;33.60;46.80
34877;DHT22;21086;44.780;17.194;2023-04-06T14:57:14;33.70;47.00
34877;DHT22;21086;44.780;17.194;2023-04-06T14:59:41;33.80;46.10
34877;DHT22;21086;44.780;17.194;2023-04-06T15:02:08;34.10;45.90
34877;DHT22;21086;44.780;17.194;2023-04-06T15:04:35;32.70;42.60
34877;DHT22;21086;44.780;17.194;2023-04-06T15:07:03;30.40;39.90
34877;DHT22;21086;44.780;17.194;2023-04-06T15:09:30;28.70;38.10
34877;DHT22;21086;44.780;17.194;2023-04-06T15:11:57;26.90;36.80
34877;DHT22;21086;44.780;17.194;2023-04-06T15:14:28;25.40;37.10
34877;DHT22;21086;44.780;17.194;2023-04-06T15:16:57;25.60;40.00
34877;DHT22;21086;44.780;17.194;2023-04-06T15:19:24;26.20;42.20
34877;DHT22;21086;44.780;17.194;2023-04-06T15:21:54;27.50;44.80
34877;DHT22;21086;44.780;17.194;2023-04-06T15:24:26;28.40;45.00
34877;DHT22;21086;44.780;17.194;2023-04-06T15:26:53;28.60;54.10
34877;DHT22;21086;44.780;17.194;2023-04-06T15:29:23;28.90;44.80
34877;DHT22;21086;44.780;17.194;2023-04-06T15:31:57;29.70;45.60
34877;DHT22;21086;44.780;17.194;2023-04-06T15:34:25;30.00;45.10
34877;DHT22;21086;44.780;17.194;2023-04-06T15:36:52;30.20;44.80
34877;DHT22;21086;44.780;17.194;2023-04-06T15:39:19;29.70;44.00
34877;DHT22;21086;44.780;17.194;2023-04-06T15:41:46;29.90;43.90